sensor_id;sensor_type;location;lat;lon;timestamp;temperature;humidity
37274;DHT22;23161;51.250;5.554;2022-09-09T00:01:11;18.30;99.90
37274;DHT22;23161;51.250;5.554;2022-09-09T00:06:45;18.30;99.90
37274;DHT22;23161;51.250;5.554;2022-09-09T00:09:19;18.30;99.90
37274;DHT22;23161;51.250;5.554;2022-09-09T00:11:51;18.30;99.90
37274;DHT22;23161;51.250;5.554;2022-09-09T00:17:12;18.20;99.90
37274;DHT22;23161;51.250;5.554;2022-09-09T00:19:56;18.20;99.90
37274;DHT22;23161;51.250;5.554;2022-09-09T00:22:28;18.20;99.90
37274;DHT22;23161;51.250;5.554;2022-09-09T00:25:08;18.20;99.90
37274;DHT22;23161;51.250;5.554;2022-09-09T00:27:48;18.20;99.90
37274;DHT22;23161;51.250;5.554;2022-09-09T00:30:19;18.20;99.90
37274;DHT22;23161;51.250;5.554;2022-09-09T00:32:53;18.20;99.90
37274;DHT22;23161;51.250;5.554;2022-09-09T00:35:31;18.10;99.90
37274;DHT22;23161;51.250;5.554;2022-09-09T00:38:12;18.10;99.90
37274;DHT22;23161;51.250;5.554;2022-09-09T00:41:00;18.10;99.90
37274;DHT22;23161;51.250;5.554;2022-09-09T00:43:32;18.10;99.90
37274;DHT22;23161;51.250;5.554;2022-09-09T00:49:23;18.10;99.90
37274;DHT22;23161;51.250;5.554;2022-09-09T00:57:34;18.00;99.90
37274;DHT22;23161;51.250;5.554;2022-09-09T01:02:56;18.00;99.90
37274;DHT22;23161;51.250;5.554;2022-09-09T01:08:39;18.00;99.90
37274;DHT22;23161;51.250;5.554;2022-09-09T01:13:56;18.00;99.90
37274;DHT22;23161;51.250;5.554;2022-09-09T01:16:28;18.00;99.90
37274;DHT22;23161;51.250;5.554;2022-09-09T01:18:56;18.00;99.90
37274;DHT22;23161;51.250;5.554;2022-09-09T01:24:25;17.90;99.90
37274;DHT22;23161;51.250;5.554;2022-09-09T01:27:02;17.90;99.90
37274;DHT22;23161;51.250;5.554;2022-09-09T01:29:30;18.00;99.90
37274;DHT22;23161;51.250;5.554;2022-09-09T01:32:00;17.90;99.90
37274;DHT22;23161;51.250;5.554;2022-09-09T01:34:36;17.90;99.90
37274;DHT22;23161;51.250;5.554;2022-09-09T01:37:07;17.90;99.90
37274;DHT22;23161;51.250;5.554;2022-09-09T01:39:35;17.90;99.90
37274;DHT22;23161;51.250;5.554;2022-09-09T01:42:09;17.90;99.90
37274;DHT22;23161;51.250;5.554;2022-09-09T01:44:36;17.90;99.90
37274;DHT22;23161;51.250;5.554;2022-09-09T01:47:04;17.90;99.90
37274;DHT22;23161;51.250;5.554;2022-09-09T01:49:31;17.90;99.90
37274;DHT22;23161;51.250;5.554;2022-09-09T01:52:02;17.90;99.90
37274;DHT22;23161;51.250;5.554;2022-09-09T01:54:34;17.90;99.90
37274;DHT22;23161;51.250;5.554;2022-09-09T01:57:27;17.80;99.90
37274;DHT22;23161;51.250;5.554;2022-09-09T02:00:04;17.80;99.90
37274;DHT22;23161;51.250;5.554;2022-09-09T02:05:40;17.80;99.90
37274;DHT22;23161;51.250;5.554;2022-09-09T02:11:11;17.80;99.90
37274;DHT22;23161;51.250;5.554;2022-09-09T02:13:51;17.80;99.90
37274;DHT22;23161;51.250;5.554;2022-09-09T02:21:42;17.70;99.90
37274;DHT22;23161;51.250;5.554;2022-09-09T02:24:11;17.70;99.90
37274;DHT22;23161;51.250;5.554;2022-09-09T02:26:46;17.70;99.90
37274;DHT22;23161;51.250;5.554;2022-09-09T02:29:20;17.70;99.90
37274;DHT22;23161;51.250;5.554;2022-09-09T02:31:47;17.70;99.90
37274;DHT22;23161;51.250;5.554;2022-09-09T02:34:22;17.70;99.90
37274;DHT22;23161;51.250;5.554;2022-09-09T02:36:50;17.70;99.90
37274;DHT22;23161;51.250;5.554;2022-09-09T02:39:18;17.70;99.90
37274;DHT22;23161;51.250;5.554;2022-09-09T02:41:44;17.70;99.90
37274;DHT22;23161;51.250;5.554;2022-09-09T02:44:12;17.70;99.90
37274;DHT22;23161;51.250;5.554;2022-09-09T02:47:01;17.70;99.90
37274;DHT22;23161;51.250;5.554;2022-09-09T02:49:41;17.60;99.90
37274;DHT22;23161;51.250;5.554;2022-09-09T02:52:14;17.60;99.90
37274;DHT22;23161;51.250;5.554;2022-09-09T02:54:44;17.60;99.90
37274;DHT22;23161;51.250;5.554;2022-09-09T02:57:27;17.60;99.90
37274;DHT22;23161;51.250;5.554;2022-09-09T02:59:57;17.60;99.90
37274;DHT22;23161;51.250;5.554;2022-09-09T03:02:23;17.60;99.90
37274;DHT22;23161;51.250;5.554;2022-09-09T03:04:54;17.60;99.90
37274;DHT22;23161;51.250;5.554;2022-09-09T03:07:21;17.60;99.90
37274;DHT22;23161;51.250;5.554;2022-09-09T03:09:48;17.60;99.90
37274;DHT22;23161;51.250;5.554;2022-09-09T03:12:14;17.60;99.90
37274;DHT22;23161;51.250;5.554;2022-09-09T03:14:41;17.60;99.90
37274;DHT22;23161;51.250;5.554;2022-09-09T03:17:07;17.60;99.90
37274;DHT22;23161;51.250;5.554;2022-09-09T03:19:40;17.60;99.90
37274;DHT22;23161;51.250;5.554;2022-09-09T03:22:10;17.60;99.90
37274;DHT22;23161;51.250;5.554;2022-09-09T03:24:39;17.50;99.90
37274;DHT22;23161;51.250;5.554;2022-09-09T03:27:05;17.50;99.90
37274;DHT22;23161;51.250;5.554;2022-09-09T03:29:32;17.50;99.90
37274;DHT22;23161;51.250;5.554;2022-09-09T03:32:01;17.90;99.90
37274;DHT22;23161;51.250;5.554;2022-09-09T03:34:27;17.50;99.90
37274;DHT22;23161;51.250;5.554;2022-09-09T03:36:56;17.50;99.90
37274;DHT22;23161;51.250;5.554;2022-09-09T03:39:22;17.50;99.90
37274;DHT22;23161;51.250;5.554;2022-09-09T03:41:48;17.50;99.90
37274;DHT22;23161;51.250;5.554;2022-09-09T03:44:14;17.50;99.90
37274;DHT22;23161;51.250;5.554;2022-09-09T03:46:42;17.50;99.90
37274;DHT22;23161;51.250;5.554;2022-09-09T03:49:07;17.50;99.90
37274;DHT22;23161;51.250;5.554;2022-09-09T03:51:34;17.50;99.90
37274;DHT22;23161;51.250;5.554;2022-09-09T03:54:02;17.50;99.90
37274;DHT22;23161;51.250;5.554;2022-09-09T03:56:31;17.50;99.90
37274;DHT22;23161;51.250;5.554;2022-09-09T03:58:57;17.50;99.90
37274;DHT22;23161;51.250;5.554;2022-09-09T04:01:24;17.50;99.90
37274;DHT22;23161;51.250;5.554;2022-09-09T04:03:49;17.40;99.90
37274;DHT22;23161;51.250;5.554;2022-09-09T04:06:19;17.50;99.90
37274;DHT22;23161;51.250;5.554;2022-09-09T04:08:46;17.50;99.90
37274;DHT22;23161;51.250;5.554;2022-09-09T04:11:15;17.50;99.90
37274;DHT22;23161;51.250;5.554;2022-09-09T04:13:42;17.50;99.90
37274;DHT22;23161;51.250;5.554;2022-09-09T04:16:11;17.50;99.90
37274;DHT22;23161;51.250;5.554;2022-09-09T04:18:39;17.50;99.90
37274;DHT22;23161;51.250;5.554;2022-09-09T04:21:06;17.50;99.90
37274;DHT22;23161;51.250;5.554;2022-09-09T04:23:32;17.50;99.90
37274;DHT22;23161;51.250;5.554;2022-09-09T04:26:01;17.50;99.90
37274;DHT22;23161;51.250;5.554;2022-09-09T04:28:31;17.50;99.90
37274;DHT22;23161;51.250;5.554;2022-09-09T04:31:04;17.50;99.90
37274;DHT22;23161;51.250;5.554;2022-09-09T04:33:31;17.40;99.90
37274;DHT22;23161;51.250;5.554;2022-09-09T04:35:57;17.60;99.90
37274;DHT22;23161;51.250;5.554;2022-09-09T04:38:24;17.40;99.90
37274;DHT22;23161;51.250;5.554;2022-09-09T04:40:52;17.50;99.90
37274;DHT22;23161;51.250;5.554;2022-09-09T04:43:20;17.50;99.90
37274;DHT22;23161;51.250;5.554;2022-09-09T04:45:47;17.40;99.90
37274;DHT22;23161;51.250;5.554;2022-09-09T04:48:14;17.40;99.90
37274;DHT22;23161;51.250;5.554;2022-09-09T04:50:40;17.40;99.90
37274;DHT22;23161;51.250;5.554;2022-09-09T04:53:08;17.40;99.90
37274;DHT22;23161;51.250;5.554;2022-09-09T04:55:36;17.40;99.90
37274;DHT22;23161;51.250;5.554;2022-09-09T04:58:07;17.40;99.90
37274;DHT22;23161;51.250;5.554;2022-09-09T05:00:34;17.40;99.90
37274;DHT22;23161;51.250;5.554;2022-09-09T05:03:04;17.40;99.90
37274;DHT22;23161;51.250;5.554;2022-09-09T05:05:31;17.40;99.90
37274;DHT22;23161;51.250;5.554;2022-09-09T05:08:05;17.40;99.90
37274;DHT22;23161;51.250;5.554;2022-09-09T05:10:32;17.30;99.90
37274;DHT22;23161;51.250;5.554;2022-09-09T05:12:58;17.40;99.90
37274;DHT22;23161;51.250;5.554;2022-09-09T05:15:27;17.40;99.90
37274;DHT22;23161;51.250;5.554;2022-09-09T05:17:57;17.30;99.90
37274;DHT22;23161;51.250;5.554;2022-09-09T05:20:24;17.30;99.90
37274;DHT22;23161;51.250;5.554;2022-09-09T05:22:56;17.40;99.90
37274;DHT22;23161;51.250;5.554;2022-09-09T05:25:24;17.30;99.90
37274;DHT22;23161;51.250;5.554;2022-09-09T05:27:54;17.30;99.90
37274;DHT22;23161;51.250;5.554;2022-09-09T05:30:21;17.30;99.90
37274;DHT22;23161;51.250;5.554;2022-09-09T05:32:50;17.30;99.90
37274;DHT22;23161;51.250;5.554;2022-09-09T05:35:17;17.30;99.90
37274;DHT22;23161;51.250;5.554;2022-09-09T05:37:45;17.30;99.90
37274;DHT22;23161;51.250;5.554;2022-09-09T05:40:12;17.30;99.90
37274;DHT22;23161;51.250;5.554;2022-09-09T05:42:39;17.30;99.90
37274;DHT22;23161;51.250;5.554;2022-09-09T05:45:07;17.30;99.90
37274;DHT22;23161;51.250;5.554;2022-09-09T05:47:35;17.30;99.90
37274;DHT22;23161;51.250;5.554;2022-09-09T05:50:01;17.30;99.90
37274;DHT22;23161;51.250;5.554;2022-09-09T05:52:27;17.30;99.90
37274;DHT22;23161;51.250;5.554;2022-09-09T05:54:54;17.30;99.90
37274;DHT22;23161;51.250;5.554;2022-09-09T05:57:22;17.30;99.90
37274;DHT22;23161;51.250;5.554;2022-09-09T05:59:49;17.30;99.90
37274;DHT22;23161;51.250;5.554;2022-09-09T06:02:15;17.30;99.90
37274;DHT22;23161;51.250;5.554;2022-09-09T06:04:42;17.30;99.90
37274;DHT22;23161;51.250;5.554;2022-09-09T06:07:08;17.30;99.90
37274;DHT22;23161;51.250;5.554;2022-09-09T06:09:34;17.30;99.90
37274;DHT22;23161;51.250;5.554;2022-09-09T06:12:00;17.30;99.90
37274;DHT22;23161;51.250;5.554;2022-09-09T06:14:26;17.30;99.90
37274;DHT22;23161;51.250;5.554;2022-09-09T06:16:54;17.30;99.90
37274;DHT22;23161;51.250;5.554;2022-09-09T06:19:25;17.30;99.90
37274;DHT22;23161;51.250;5.554;2022-09-09T06:21:54;17.30;99.90
37274;DHT22;23161;51.250;5.554;2022-09-09T06:24:20;17.30;99.90
37274;DHT22;23161;51.250;5.554;2022-09-09T06:26:47;17.30;99.90
37274;DHT22;23161;51.250;5.554;2022-09-09T06:29:19;17.30;99.90
37274;DHT22;23161;51.250;5.554;2022-09-09T06:31:45;17.30;99.90
37274;DHT22;23161;51.250;5.554;2022-09-09T06:34:15;17.30;99.90
37274;DHT22;23161;51.250;5.554;2022-09-09T06:36:45;17.30;99.90
37274;DHT22;23161;51.250;5.554;2022-09-09T06:39:12;17.30;99.90
37274;DHT22;23161;51.250;5.554;2022-09-09T06:41:39;17.30;99.90
37274;DHT22;23161;51.250;5.554;2022-09-09T06:44:08;17.30;99.90
37274;DHT22;23161;51.250;5.554;2022-09-09T06:46:39;17.30;99.90
37274;DHT22;23161;51.250;5.554;2022-09-09T06:49:10;17.30;99.90
37274;DHT22;23161;51.250;5.554;2022-09-09T17:15:29;19.40;99.90
37274;DHT22;23161;51.250;5.554;2022-09-09T17:17:56;19.40;99.90
37274;DHT22;23161;51.250;5.554;2022-09-09T17:20:21;19.40;99.90
37274;DHT22;23161;51.250;5.554;2022-09-09T17:22:47;19.40;99.90
37274;DHT22;23161;51.250;5.554;2022-09-09T17:25:14;19.30;99.90
37274;DHT22;23161;51.250;5.554;2022-09-09T17:27:40;19.30;99.90
37274;DHT22;23161;51.250;5.554;2022-09-09T17:30:06;18.90;99.90
37274;DHT22;23161;51.250;5.554;2022-09-09T17:32:32;19.20;99.90
37274;DHT22;23161;51.250;5.554;2022-09-09T17:35:01;19.20;99.90
37274;DHT22;23161;51.250;5.554;2022-09-09T17:37:27;19.20;99.90
37274;DHT22;23161;51.250;5.554;2022-09-09T17:39:53;19.20;99.90
37274;DHT22;23161;51.250;5.554;2022-09-09T17:42:19;19.10;99.90
37274;DHT22;23161;51.250;5.554;2022-09-09T17:44:45;19.10;99.90
37274;DHT22;23161;51.250;5.554;2022-09-09T17:47:11;19.10;99.90
37274;DHT22;23161;51.250;5.554;2022-09-09T17:49:37;19.00;99.90
37274;DHT22;23161;51.250;5.554;2022-09-09T17:52:03;19.10;99.90
37274;DHT22;23161;51.250;5.554;2022-09-09T17:54:30;19.00;99.90
37274;DHT22;23161;51.250;5.554;2022-09-09T17:56:56;19.00;99.90
37274;DHT22;23161;51.250;5.554;2022-09-09T17:59:23;19.00;99.90
37274;DHT22;23161;51.250;5.554;2022-09-09T18:01:50;19.00;99.90
37274;DHT22;23161;51.250;5.554;2022-09-09T18:04:26;18.90;99.90
37274;DHT22;23161;51.250;5.554;2022-09-09T18:06:52;18.90;99.90
37274;DHT22;23161;51.250;5.554;2022-09-09T18:09:21;18.90;99.90
37274;DHT22;23161;51.250;5.554;2022-09-09T18:11:49;18.90;99.90
37274;DHT22;23161;51.250;5.554;2022-09-09T18:14:18;19.00;99.90
37274;DHT22;23161;51.250;5.554;2022-09-09T18:16:45;19.10;99.90
37274;DHT22;23161;51.250;5.554;2022-09-09T18:19:13;19.10;99.90
37274;DHT22;23161;51.250;5.554;2022-09-09T18:21:42;19.10;99.90
37274;DHT22;23161;51.250;5.554;2022-09-09T18:24:09;19.10;99.90
37274;DHT22;23161;51.250;5.554;2022-09-09T18:26:37;19.10;99.90
37274;DHT22;23161;51.250;5.554;2022-09-09T18:29:07;19.10;99.90
37274;DHT22;23161;51.250;5.554;2022-09-09T18:31:34;19.10;99.90
37274;DHT22;23161;51.250;5.554;2022-09-09T18:34:04;19.10;99.90
37274;DHT22;23161;51.250;5.554;2022-09-09T18:36:36;19.10;99.90
37274;DHT22;23161;51.250;5.554;2022-09-09T18:39:03;19.10;99.90
37274;DHT22;23161;51.250;5.554;2022-09-09T18:41:34;19.10;99.90
37274;DHT22;23161;51.250;5.554;2022-09-09T18:44:02;19.10;99.90
37274;DHT22;23161;51.250;5.554;2022-09-09T18:46:30;19.10;99.90
37274;DHT22;23161;51.250;5.554;2022-09-09T18:48:57;19.00;99.90
37274;DHT22;23161;51.250;5.554;2022-09-09T18:51:25;19.10;99.90
37274;DHT22;23161;51.250;5.554;2022-09-09T18:53:52;19.00;99.90
37274;DHT22;23161;51.250;5.554;2022-09-09T18:56:18;19.00;99.90
37274;DHT22;23161;51.250;5.554;2022-09-09T18:58:44;19.00;99.90
37274;DHT22;23161;51.250;5.554;2022-09-09T19:01:12;19.00;99.90
37274;DHT22;23161;51.250;5.554;2022-09-09T19:03:38;19.00;99.90
37274;DHT22;23161;51.250;5.554;2022-09-09T19:06:12;19.00;99.90
37274;DHT22;23161;51.250;5.554;2022-09-09T19:08:41;19.00;99.90
37274;DHT22;23161;51.250;5.554;2022-09-09T19:11:09;19.00;99.90
37274;DHT22;23161;51.250;5.554;2022-09-09T19:13:36;19.00;99.90
37274;DHT22;23161;51.250;5.554;2022-09-09T19:16:07;18.90;99.90
37274;DHT22;23161;51.250;5.554;2022-09-09T19:18:34;18.90;99.90
37274;DHT22;23161;51.250;5.554;2022-09-09T19:21:24;18.90;99.90
37274;DHT22;23161;51.250;5.554;2022-09-09T19:24:01;18.90;99.90
37274;DHT22;23161;51.250;5.554;2022-09-09T19:26:30;18.90;99.90
37274;DHT22;23161;51.250;5.554;2022-09-09T19:29:00;18.90;99.90
37274;DHT22;23161;51.250;5.554;2022-09-09T19:31:28;18.90;99.90
37274;DHT22;23161;51.250;5.554;2022-09-09T19:33:56;18.90;99.90
37274;DHT22;23161;51.250;5.554;2022-09-09T19:36:23;18.90;99.90
37274;DHT22;23161;51.250;5.554;2022-09-09T19:38:49;18.90;99.90
37274;DHT22;23161;51.250;5.554;2022-09-09T19:41:20;18.90;99.90
37274;DHT22;23161;51.250;5.554;2022-09-09T19:43:51;18.80;99.90
37274;DHT22;23161;51.250;5.554;2022-09-09T19:46:17;18.80;99.90
37274;DHT22;23161;51.250;5.554;2022-09-09T19:48:44;18.80;99.90
37274;DHT22;23161;51.250;5.554;2022-09-09T19:51:15;18.80;99.90
37274;DHT22;23161;51.250;5.554;2022-09-09T19:53:44;18.80;99.90
37274;DHT22;23161;51.250;5.554;2022-09-09T19:56:11;18.80;99.90
37274;DHT22;23161;51.250;5.554;2022-09-09T19:58:38;18.80;99.90
37274;DHT22;23161;51.250;5.554;2022-09-09T20:01:16;18.80;99.90
37274;DHT22;23161;51.250;5.554;2022-09-09T20:03:44;18.80;99.90
37274;DHT22;23161;51.250;5.554;2022-09-09T20:06:12;18.80;99.90
37274;DHT22;23161;51.250;5.554;2022-09-09T20:08:39;18.80;99.90
37274;DHT22;23161;51.250;5.554;2022-09-09T20:11:06;18.70;99.90
37274;DHT22;23161;51.250;5.554;2022-09-09T20:13:35;18.80;99.90
37274;DHT22;23161;51.250;5.554;2022-09-09T20:16:08;18.80;99.90
37274;DHT22;23161;51.250;5.554;2022-09-09T20:18:36;18.70;99.90
37274;DHT22;23161;51.250;5.554;2022-09-09T20:21:09;18.70;99.90
37274;DHT22;23161;51.250;5.554;2022-09-09T20:23:36;18.70;99.90
37274;DHT22;23161;51.250;5.554;2022-09-09T20:26:04;18.70;99.90
37274;DHT22;23161;51.250;5.554;2022-09-09T20:28:33;18.70;99.90
37274;DHT22;23161;51.250;5.554;2022-09-09T20:31:13;18.70;99.90
37274;DHT22;23161;51.250;5.554;2022-09-09T20:33:41;18.70;99.90
37274;DHT22;23161;51.250;5.554;2022-09-09T20:36:14;18.70;99.90
37274;DHT22;23161;51.250;5.554;2022-09-09T20:38:44;18.70;99.90
37274;DHT22;23161;51.250;5.554;2022-09-09T20:41:12;18.70;99.90
37274;DHT22;23161;51.250;5.554;2022-09-09T20:43:45;18.70;99.90
37274;DHT22;23161;51.250;5.554;2022-09-09T20:46:24;18.70;99.90
37274;DHT22;23161;51.250;5.554;2022-09-09T20:48:50;18.70;99.90
37274;DHT22;23161;51.250;5.554;2022-09-09T20:51:17;18.70;99.90
37274;DHT22;23161;51.250;5.554;2022-09-09T20:53:45;18.70;99.90
37274;DHT22;23161;51.250;5.554;2022-09-09T20:56:12;18.70;99.90
37274;DHT22;23161;51.250;5.554;2022-09-09T20:58:41;18.60;99.90
37274;DHT22;23161;51.250;5.554;2022-09-09T21:01:13;18.60;99.90
37274;DHT22;23161;51.250;5.554;2022-09-09T21:03:39;18.70;99.90
37274;DHT22;23161;51.250;5.554;2022-09-09T21:06:05;18.60;99.90
37274;DHT22;23161;51.250;5.554;2022-09-09T21:08:33;18.60;99.90
37274;DHT22;23161;51.250;5.554;2022-09-09T21:11:00;18.60;99.90
37274;DHT22;23161;51.250;5.554;2022-09-09T21:13:33;18.60;99.90
37274;DHT22;23161;51.250;5.554;2022-09-09T21:15:59;18.60;99.90
37274;DHT22;23161;51.250;5.554;2022-09-09T21:18:25;18.60;99.90
37274;DHT22;23161;51.250;5.554;2022-09-09T21:20:55;18.50;99.90
37274;DHT22;23161;51.250;5.554;2022-09-09T21:23:21;18.50;99.90
37274;DHT22;23161;51.250;5.554;2022-09-09T21:25:48;18.50;99.90
37274;DHT22;23161;51.250;5.554;2022-09-09T21:28:15;18.50;99.90
37274;DHT22;23161;51.250;5.554;2022-09-09T21:30:46;18.50;99.90
37274;DHT22;23161;51.250;5.554;2022-09-09T21:33:12;18.50;99.90
37274;DHT22;23161;51.250;5.554;2022-09-09T21:35:39;18.50;99.90
37274;DHT22;23161;51.250;5.554;2022-09-09T21:38:06;18.50;99.90
37274;DHT22;23161;51.250;5.554;2022-09-09T21:40:37;18.50;99.90
37274;DHT22;23161;51.250;5.554;2022-09-09T21:43:07;18.50;99.90
37274;DHT22;23161;51.250;5.554;2022-09-09T21:45:40;18.50;99.90
37274;DHT22;23161;51.250;5.554;2022-09-09T21:48:09;18.40;99.90
37274;DHT22;23161;51.250;5.554;2022-09-09T21:50:39;18.40;99.90
37274;DHT22;23161;51.250;5.554;2022-09-09T21:53:05;18.40;99.90
37274;DHT22;23161;51.250;5.554;2022-09-09T21:55:33;18.40;99.90
37274;DHT22;23161;51.250;5.554;2022-09-09T21:57:59;18.40;99.90
37274;DHT22;23161;51.250;5.554;2022-09-09T22:00:25;18.40;99.90
37274;DHT22;23161;51.250;5.554;2022-09-09T22:02:51;18.40;99.90
37274;DHT22;23161;51.250;5.554;2022-09-09T22:05:17;18.40;99.90
37274;DHT22;23161;51.250;5.554;2022-09-09T22:07:43;18.30;99.90
37274;DHT22;23161;51.250;5.554;2022-09-09T22:10:08;18.40;99.90
37274;DHT22;23161;51.250;5.554;2022-09-09T22:12:35;18.30;99.90
37274;DHT22;23161;51.250;5.554;2022-09-09T22:15:02;18.30;99.90
37274;DHT22;23161;51.250;5.554;2022-09-09T22:17:32;18.30;99.90
37274;DHT22;23161;51.250;5.554;2022-09-09T22:19:58;18.30;99.90
37274;DHT22;23161;51.250;5.554;2022-09-09T22:22:24;18.30;99.90
37274;DHT22;23161;51.250;5.554;2022-09-09T22:24:50;18.30;99.90
37274;DHT22;23161;51.250;5.554;2022-09-09T22:27:17;18.30;99.90
37274;DHT22;23161;51.250;5.554;2022-09-09T22:29:42;18.20;99.90
37274;DHT22;23161;51.250;5.554;2022-09-09T22:32:09;18.20;99.90
37274;DHT22;23161;51.250;5.554;2022-09-09T22:34:36;18.20;99.90
37274;DHT22;23161;51.250;5.554;2022-09-09T22:37:03;18.20;99.90
37274;DHT22;23161;51.250;5.554;2022-09-09T22:39:32;18.20;99.90
37274;DHT22;23161;51.250;5.554;2022-09-09T22:41:58;18.20;99.90
37274;DHT22;23161;51.250;5.554;2022-09-09T22:44:25;18.20;99.90
37274;DHT22;23161;51.250;5.554;2022-09-09T22:46:52;18.20;99.90
37274;DHT22;23161;51.250;5.554;2022-09-09T22:49:18;18.20;99.90
37274;DHT22;23161;51.250;5.554;2022-09-09T22:52:14;18.10;99.90
37274;DHT22;23161;51.250;5.554;2022-09-09T22:54:40;18.10;99.90
37274;DHT22;23161;51.250;5.554;2022-09-09T22:57:06;18.10;99.90
37274;DHT22;23161;51.250;5.554;2022-09-09T22:59:34;18.10;99.90
37274;DHT22;23161;51.250;5.554;2022-09-09T23:02:01;18.10;99.90
37274;DHT22;23161;51.250;5.554;2022-09-09T23:04:30;18.10;99.90
37274;DHT22;23161;51.250;5.554;2022-09-09T23:07:05;18.00;99.90
37274;DHT22;23161;51.250;5.554;2022-09-09T23:09:32;18.00;99.90
37274;DHT22;23161;51.250;5.554;2022-09-09T23:11:58;18.00;99.90
37274;DHT22;23161;51.250;5.554;2022-09-09T23:14:25;17.90;99.90
37274;DHT22;23161;51.250;5.554;2022-09-09T23:16:51;18.00;99.90
37274;DHT22;23161;51.250;5.554;2022-09-09T23:19:18;18.00;99.90
37274;DHT22;23161;51.250;5.554;2022-09-09T23:21:51;17.90;99.90
37274;DHT22;23161;51.250;5.554;2022-09-09T23:24:19;19.20;99.90
37274;DHT22;23161;51.250;5.554;2022-09-09T23:26:44;18.00;99.90
37274;DHT22;23161;51.250;5.554;2022-09-09T23:29:12;17.90;99.90
37274;DHT22;23161;51.250;5.554;2022-09-09T23:31:39;17.90;99.90
37274;DHT22;23161;51.250;5.554;2022-09-09T23:34:05;17.90;99.90
37274;DHT22;23161;51.250;5.554;2022-09-09T23:36:46;17.90;99.90
37274;DHT22;23161;51.250;5.554;2022-09-09T23:39:12;17.90;99.90
37274;DHT22;23161;51.250;5.554;2022-09-09T23:41:38;17.80;99.90
37274;DHT22;23161;51.250;5.554;2022-09-09T23:44:05;17.90;99.90
37274;DHT22;23161;51.250;5.554;2022-09-09T23:46:33;17.90;99.90
37274;DHT22;23161;51.250;5.554;2022-09-09T23:49:00;17.90;99.90
37274;DHT22;23161;51.250;5.554;2022-09-09T23:51:28;17.90;99.90
37274;DHT22;23161;51.250;5.554;2022-09-09T23:53:56;17.90;99.90
37274;DHT22;23161;51.250;5.554;2022-09-09T23:56:28;17.90;99.90
37274;DHT22;23161;51.250;5.554;2022-09-09T23:58:56;17.80;99.90
